Aérodrome :
LOGIN :

S'inscrire | Disclaimer

   EN    FR    IT 

 










Légende :    VFR   VFR Marginal   IFR   IFR Intensif   IFR Très Intensif
Visi : 
Plafond : 
>= 8 km
>= 3000ft
5 à 8 km
1000 à 3000 ft
1500m à 5 km
500 à 1000 ft
800 à 1500m
200 à 500 ft
< 800m
< 200 ft
Symboles :   Orages  Brouillard  Fortes neiges  Fortes précipitations  Vent > 20 kt
SIGMETs :   Divers  Orages  Givrage  Turbulence  Onde Orograph.  Cendres Volcan.







- Altitude de l'aérodrome : 202 ft
- Code IATA : LGW
- Voir les cartes d'approche


EGKK - London Gatwick

DERNIER METAR :
  • 221120Z 24005KT 200V300 CAVOK 18/05 Q1020

METARs EXPIRÉS :
  • 221050Z 27006KT 240V310 CAVOK 18/05 Q1020
  • 221020Z VRB03KT CAVOK 18/04 Q1020
  • 220950Z VRB01KT CAVOK 18/04 Q1021
  • 220920Z VRB02KT CAVOK 17/05 Q1021
  • 220850Z VRB03KT CAVOK 16/06 Q1020
  • 220820Z VRB03KT CAVOK 14/05 Q1020

TAF TAF EGKK
Valide du 22 à 06h jusqu'au 23 à 12h UTC


220458Z 2206/2312 VRB03KT 9999 FEW045
BECMG 2215/2218 21010KT
PROB30 2222/2301 7000
PROB30 2301/2306 4000 BR
Pas de NOTAMs connus pour ce terrain.



MET'MAP, la Météo Aéronautique d'un coup d'oeil ! - Copyright ORBIFLY Décembre 2007 - Disclaimer

ORBIFLY MET'MAP TEAM :

Programmation & Développement : Alexandra Zaïnal
Conception & Développement : Baudouin d'Aumeries
Co-Programmation & Développement : Marc-Olivier Méhu
Soutien technique & logistique : Manuel Goepfert

Contact : metmap@orbifly.com




SOURCES & CREDITS :

   NOAA